createdAt,value
2018-07-14T00:00:21.390Z,78.21
2018-07-14T00:01:21.409Z,78.21
2018-07-14T00:03:14.342Z,78.50
2018-07-14T00:04:14.347Z,78.21
2018-07-14T00:06:08.273Z,78.40
2018-07-14T00:07:08.276Z,78.50
2018-07-14T00:09:01.188Z,78.59
2018-07-14T00:10:01.262Z,79.07
2018-07-14T00:11:54.335Z,78.50
2018-07-14T00:12:54.341Z,78.30
2018-07-14T00:14:47.255Z,78.75
2018-07-14T00:15:47.274Z,79.13
2018-07-14T00:17:40.208Z,79.32
2018-07-14T00:18:40.209Z,79.32
2018-07-14T00:20:33.122Z,79.13
2018-07-14T00:21:33.144Z,79.61
2018-07-14T00:23:26.081Z,79.32
2018-07-14T00:24:26.156Z,79.71
2018-07-14T00:26:19.001Z,79.32
2018-07-14T00:27:19.026Z,78.94
2018-07-14T00:29:11.955Z,80.09
2018-07-14T00:30:11.956Z,79.99
2018-07-14T00:32:04.887Z,80.09
2018-07-14T00:33:04.891Z,80.19
2018-07-14T00:34:57.802Z,80.38
2018-07-14T00:35:57.826Z,80.43
2018-07-14T00:37:50.759Z,79.96
2018-07-14T00:38:50.758Z,80.63
2018-07-14T00:40:43.677Z,80.82
2018-07-14T00:41:43.704Z,80.34
2018-07-14T00:43:36.634Z,80.63
2018-07-14T00:44:36.640Z,80.82
2018-07-14T00:46:29.549Z,80.82
2018-07-14T00:47:29.571Z,80.63
2018-07-14T00:49:22.504Z,81.10
2018-07-14T00:50:22.507Z,80.63
2018-07-14T00:52:15.422Z,80.91
2018-07-14T00:53:15.441Z,80.91
2018-07-14T00:55:08.372Z,81.01
2018-07-14T00:56:08.375Z,81.20
2018-07-14T00:58:01.314Z,81.30
2018-07-14T00:59:01.320Z,81.49
2018-07-14T01:00:54.233Z,81.59
2018-07-14T01:01:54.251Z,81.30
2018-07-14T01:03:47.187Z,81.40
2018-07-14T01:04:47.186Z,81.49
2018-07-14T01:06:40.100Z,81.59
2018-07-14T01:07:40.119Z,81.40
2018-07-14T01:09:33.056Z,81.54
2018-07-14T01:10:33.119Z,81.35
2018-07-14T01:12:25.967Z,81.54
2018-07-14T01:13:26.010Z,81.64
2018-07-14T01:15:19.200Z,81.45
2018-07-14T01:16:19.125Z,81.64
2018-07-14T01:18:12.069Z,81.26
2018-07-14T01:19:12.057Z,81.26
2018-07-14T01:21:05.134Z,81.93
2018-07-14T01:22:05.139Z,82.03
2018-07-14T01:23:58.073Z,82.12
2018-07-14T01:24:58.073Z,82.21
2018-07-14T01:26:51.003Z,82.79
2018-07-14T01:27:51.007Z,82.51
2018-07-14T01:29:43.937Z,82.79
2018-07-14T01:30:43.936Z,82.60
2018-07-14T01:32:36.853Z,82.12
2018-07-14T01:33:36.870Z,82.60
2018-07-14T01:35:29.801Z,82.31
2018-07-14T01:36:29.802Z,82.31
2018-07-14T01:38:22.715Z,82.03
2018-07-14T01:39:22.737Z,82.60
2018-07-14T01:41:16.662Z,82.51
2018-07-14T01:42:16.663Z,82.51
2018-07-14T01:44:09.598Z,82.51
2018-07-14T01:45:09.599Z,83.27
2018-07-14T01:47:02.510Z,83.47
2018-07-14T01:48:02.532Z,83.27
2018-07-14T01:49:55.460Z,83.37
2018-07-14T01:50:55.463Z,83.47
2018-07-14T01:52:48.376Z,83.47
2018-07-14T01:53:48.396Z,83.37
2018-07-14T01:55:41.328Z,83.37
2018-07-14T01:56:41.330Z,83.47
2018-07-14T01:58:34.243Z,82.98
2018-07-14T01:59:34.267Z,83.61
2018-07-14T02:01:27.688Z,83.52
2018-07-14T02:02:27.689Z,83.14
2018-07-14T02:04:20.620Z,82.94
2018-07-14T02:05:20.644Z,83.42
2018-07-14T02:07:13.542Z,83.91
2018-07-14T02:08:13.565Z,83.71
2018-07-14T02:10:06.489Z,83.91
2018-07-14T02:11:07.023Z,84.09
2018-07-14T02:12:59.399Z,83.81
2018-07-14T02:13:59.424Z,84.09
2018-07-14T02:15:52.351Z,83.91
2018-07-14T02:16:52.351Z,84.00
2018-07-14T02:18:45.260Z,84.38
2018-07-14T02:19:45.283Z,84.38
2018-07-14T02:21:38.213Z,84.28
2018-07-14T02:22:38.216Z,84.38
2018-07-14T02:24:31.151Z,84.00
2018-07-14T02:25:31.151Z,83.91
2018-07-14T02:27:24.065Z,84.28
2018-07-14T02:28:24.089Z,84.38
2018-07-14T02:30:17.017Z,84.28
2018-07-14T02:31:17.021Z,84.38
2018-07-14T02:33:09.928Z,84.63
2018-07-14T02:34:09.948Z,84.86
2018-07-14T02:36:02.877Z,84.67
2018-07-14T02:37:02.878Z,84.67
2018-07-14T02:38:55.790Z,84.86
2018-07-14T02:39:55.809Z,85.05
2018-07-14T02:41:48.805Z,84.95
2018-07-14T02:42:48.744Z,84.77
2018-07-14T02:44:41.653Z,84.86
2018-07-14T02:45:41.674Z,84.86
2018-07-14T02:47:34.607Z,84.48
2018-07-14T02:48:34.607Z,84.58
2018-07-14T02:50:27.542Z,84.86
2018-07-14T02:51:27.540Z,84.28
2018-07-14T02:53:20.452Z,84.28
2018-07-14T02:54:20.473Z,84.67
2018-07-14T02:56:13.406Z,84.19
2018-07-14T02:57:13.403Z,84.00
2018-07-14T02:59:06.316Z,84.48
2018-07-14T03:00:06.340Z,84.48
2018-07-14T03:01:59.271Z,84.38
2018-07-14T03:02:59.272Z,84.19
2018-07-14T03:04:52.189Z,84.28
2018-07-14T03:05:52.205Z,84.28
2018-07-14T03:07:45.140Z,84.38
2018-07-14T03:08:45.136Z,84.44
2018-07-14T03:10:38.047Z,84.34
2018-07-14T03:11:38.075Z,84.44
2018-07-14T03:13:31.995Z,84.72
2018-07-14T03:14:31.994Z,84.82
2018-07-14T03:16:24.927Z,85.01
2018-07-14T03:17:24.926Z,85.01
2018-07-14T03:19:17.896Z,84.82
2018-07-14T03:20:17.867Z,85.25
2018-07-14T03:22:10.789Z,84.86
2018-07-14T03:23:10.792Z,85.15
2018-07-14T03:25:03.707Z,84.38
2018-07-14T03:26:03.727Z,84.28
2018-07-14T03:27:56.658Z,84.48
2018-07-14T03:28:56.663Z,84.38
2018-07-14T03:30:49.571Z,84.48
2018-07-14T03:31:49.590Z,84.48
2018-07-14T03:33:42.523Z,84.38
2018-07-14T03:34:42.524Z,84.38
2018-07-14T03:36:35.495Z,84.00
2018-07-14T03:37:35.457Z,84.19
2018-07-14T03:39:28.372Z,84.38
2018-07-14T03:40:28.393Z,84.25
2018-07-14T03:42:21.327Z,84.38
2018-07-14T03:43:21.385Z,84.38
2018-07-14T03:45:14.246Z,84.28
2018-07-14T03:46:14.350Z,84.38
2018-07-14T03:48:07.198Z,84.09
2018-07-14T03:49:07.197Z,84.38
2018-07-14T03:51:00.111Z,84.58
2018-07-14T03:52:00.132Z,83.91
2018-07-14T03:53:53.060Z,83.91
2018-07-14T03:54:53.062Z,83.94
2018-07-14T03:56:45.992Z,83.85
2018-07-14T03:57:45.995Z,83.65
2018-07-14T03:59:39.423Z,82.98
2018-07-14T04:00:39.422Z,82.70
2018-07-14T04:02:32.360Z,81.97
2018-07-14T04:03:32.357Z,81.68
2018-07-14T04:05:25.336Z,80.82
2018-07-14T04:06:25.366Z,81.20
2018-07-14T04:08:18.233Z,81.30
2018-07-14T04:09:18.293Z,81.01
2018-07-14T04:11:11.151Z,81.59
2018-07-14T04:12:11.173Z,81.10
2018-07-14T04:14:04.116Z,79.86
2018-07-14T04:15:04.118Z,79.09
2018-07-14T04:16:57.029Z,79.28
2018-07-14T04:17:57.053Z,79.28
2018-07-14T04:19:49.987Z,79.91
2018-07-14T04:20:49.988Z,80.24
2018-07-14T04:22:42.900Z,80.05
2018-07-14T04:23:42.918Z,80.05
2018-07-14T04:25:35.854Z,79.67
2018-07-14T04:26:35.856Z,79.57
2018-07-14T04:28:28.792Z,79.19
2018-07-14T04:29:28.795Z,79.38
2018-07-14T04:31:21.708Z,78.90
2018-07-14T04:32:21.732Z,79.63
2018-07-14T04:34:14.660Z,80.05
2018-07-14T04:35:14.663Z,80.40
2018-07-14T04:37:07.575Z,80.87
2018-07-14T04:38:07.594Z,80.78
2018-07-14T04:40:00.528Z,80.87
2018-07-14T04:41:00.528Z,81.26
2018-07-14T04:42:53.440Z,81.26
2018-07-14T04:43:53.462Z,80.78
2018-07-14T04:45:46.398Z,81.45
2018-07-14T04:46:46.398Z,81.35
2018-07-14T04:48:39.334Z,81.07
2018-07-14T04:49:39.333Z,81.35
2018-07-14T04:51:32.259Z,80.82
2018-07-14T04:52:32.266Z,80.24
2018-07-14T04:54:25.202Z,79.42
2018-07-14T04:55:25.205Z,78.30
2018-07-14T04:57:18.129Z,77.38
2018-07-14T04:58:18.149Z,76.32
2018-07-14T05:00:11.082Z,75.59
2018-07-14T05:01:11.092Z,75.21
2018-07-14T05:03:04.139Z,74.05
2018-07-14T05:04:04.166Z,73.57
2018-07-14T05:05:57.099Z,73.86
2018-07-14T05:06:57.102Z,73.77
2018-07-14T05:08:50.023Z,72.90
2018-07-14T05:09:50.051Z,73.19
2018-07-14T05:11:42.995Z,72.80
2018-07-14T05:12:42.996Z,73.86
2018-07-14T05:14:35.953Z,72.65
2018-07-14T05:15:35.944Z,71.62
2018-07-14T05:17:28.852Z,69.93
2018-07-14T05:18:28.929Z,68.52
2018-07-14T05:20:21.815Z,67.65
2018-07-14T05:21:21.837Z,66.59
2018-07-14T05:23:14.735Z,66.82
2018-07-14T05:24:14.760Z,66.33
2018-07-14T05:26:07.696Z,65.01
2018-07-14T05:27:07.704Z,65.59
2018-07-14T05:29:00.622Z,64.53
2018-07-14T05:30:00.650Z,64.43
2018-07-14T05:31:53.794Z,64.37
2018-07-14T05:32:53.801Z,63.50
2018-07-14T05:34:46.732Z,63.70
2018-07-14T05:35:46.750Z,63.31
2018-07-14T05:37:39.709Z,62.47
2018-07-14T05:38:39.697Z,62.28
2018-07-14T05:40:32.655Z,62.89
2018-07-14T05:41:32.650Z,63.37
2018-07-14T05:43:25.599Z,64.43
2018-07-14T05:44:25.606Z,64.79
2018-07-14T05:46:18.568Z,65.56
2018-07-14T05:47:18.554Z,66.33
2018-07-14T05:49:11.475Z,66.04
2018-07-14T05:50:11.503Z,66.27
2018-07-14T05:52:04.521Z,64.47
2018-07-14T05:53:04.458Z,64.21
2018-07-14T05:54:57.383Z,61.57
2018-07-14T05:55:57.455Z,60.41
2018-07-14T05:57:50.355Z,59.50
2018-07-14T05:58:50.360Z,59.11
2018-07-14T06:00:43.288Z,56.82
2018-07-14T06:01:43.319Z,56.82
2018-07-14T06:03:37.282Z,56.98
2018-07-14T06:04:37.267Z,57.95
2018-07-14T06:06:30.209Z,57.14
2018-07-14T06:07:30.216Z,56.16
2018-07-14T06:09:23.202Z,55.04
2018-07-14T06:10:23.170Z,54.55
2018-07-14T06:12:16.126Z,53.80
2018-07-14T06:13:16.130Z,53.41
2018-07-14T06:15:09.055Z,53.83
2018-07-14T06:16:09.084Z,52.73
2018-07-14T06:18:02.031Z,53.51
2018-07-14T06:19:02.042Z,53.22
2018-07-14T06:20:54.968Z,53.31
2018-07-14T06:21:54.997Z,52.86
2018-07-14T06:23:47.947Z,52.28
2018-07-14T06:24:47.956Z,51.33
2018-07-14T06:26:40.885Z,51.79
2018-07-14T06:27:40.914Z,52.28
2018-07-14T06:29:33.862Z,52.18
2018-07-14T06:30:33.872Z,52.28
2018-07-14T06:32:26.828Z,52.56
2018-07-14T06:33:26.837Z,51.69
2018-07-14T06:35:19.767Z,51.79
2018-07-14T06:36:19.799Z,51.31
2018-07-14T06:38:12.760Z,52.08
2018-07-14T06:39:12.763Z,52.54
2018-07-14T06:41:05.707Z,52.64
2018-07-14T06:42:05.756Z,52.44
2018-07-14T06:43:58.680Z,52.44
2018-07-14T06:44:58.694Z,52.83
2018-07-14T06:46:51.621Z,53.51
2018-07-14T06:47:51.651Z,53.41
2018-07-14T06:49:44.668Z,52.54
2018-07-14T06:50:44.614Z,52.64
2018-07-14T06:52:37.563Z,52.08
2018-07-14T06:53:37.573Z,52.66
2018-07-14T06:55:30.502Z,52.37
2018-07-14T06:56:30.537Z,52.37
2018-07-14T06:58:23.489Z,51.21
2018-07-14T06:59:23.497Z,51.21
2018-07-14T07:01:16.591Z,51.40
2018-07-14T07:02:16.620Z,52.28
2018-07-14T07:04:09.577Z,52.71
2018-07-14T07:05:09.584Z,52.71
2018-07-14T07:07:03.512Z,53.58
2018-07-14T07:08:03.542Z,53.67
2018-07-14T07:09:56.553Z,53.49
2018-07-14T07:10:56.557Z,53.09
2018-07-14T07:12:49.556Z,53.29
2018-07-14T07:13:49.614Z,53.87
2018-07-14T07:15:42.565Z,53.67
2018-07-14T07:16:42.525Z,53.80
2018-07-14T07:18:35.541Z,53.41
2018-07-14T07:19:35.509Z,53.39
2018-07-14T07:21:28.544Z,53.39
2018-07-14T07:22:28.458Z,53.22
2018-07-14T07:24:21.413Z,53.80
2018-07-14T07:25:21.422Z,53.41
2018-07-14T07:27:14.359Z,52.93
2018-07-14T07:28:14.389Z,53.77
2018-07-14T07:30:07.346Z,52.90
2018-07-14T07:31:07.357Z,53.67
2018-07-14T07:33:00.290Z,53.39
2018-07-14T07:34:00.384Z,53.45
2018-07-14T07:35:53.275Z,55.07
2018-07-14T07:36:53.278Z,55.07
2018-07-14T07:38:46.204Z,56.40
2018-07-14T07:39:46.235Z,56.60
2018-07-14T07:41:39.187Z,57.18
2018-07-14T07:42:39.190Z,57.63
2018-07-14T07:44:32.153Z,58.40
2018-07-14T07:45:32.161Z,59.05
2018-07-14T07:47:25.090Z,58.47
2018-07-14T07:48:25.117Z,58.76
2018-07-14T07:50:18.064Z,59.12
2018-07-14T07:51:18.072Z,59.22
2018-07-14T07:53:10.991Z,59.77
2018-07-14T07:54:11.023Z,60.64
2018-07-14T07:56:03.965Z,61.41
2018-07-14T07:57:03.972Z,60.83
2018-07-14T07:58:56.949Z,60.31
2018-07-14T07:59:56.923Z,60.38
2018-07-14T08:01:49.873Z,61.54
2018-07-14T08:02:49.874Z,61.74
2018-07-14T08:04:42.795Z,62.02
2018-07-14T08:05:42.824Z,62.22
2018-07-14T08:07:35.772Z,63.09
2018-07-14T08:08:35.837Z,63.31
2018-07-14T08:10:28.734Z,63.02
2018-07-14T08:11:28.727Z,62.44
2018-07-14T08:13:21.647Z,63.02
2018-07-14T08:14:21.678Z,62.44
2018-07-14T08:16:14.616Z,62.54
2018-07-14T08:17:14.623Z,63.40
2018-07-14T08:19:07.554Z,63.40
2018-07-14T08:20:07.577Z,63.05
2018-07-14T08:22:00.526Z,62.66
2018-07-14T08:23:00.535Z,63.15
2018-07-14T08:24:53.454Z,62.60
2018-07-14T08:25:53.482Z,62.31
2018-07-14T08:27:46.429Z,61.63
2018-07-14T08:28:46.431Z,60.47
2018-07-14T08:30:39.352Z,60.96
2018-07-14T08:31:39.380Z,60.18
2018-07-14T08:33:32.328Z,60.47
2018-07-14T08:34:32.335Z,61.05
2018-07-14T08:36:25.305Z,60.38
2018-07-14T08:37:25.290Z,60.57
2018-07-14T08:39:18.239Z,59.60
2018-07-14T08:40:18.243Z,59.60
2018-07-14T08:42:11.198Z,59.60
2018-07-14T08:43:11.201Z,60.86
2018-07-14T08:45:04.126Z,60.28
2018-07-14T08:46:04.149Z,60.18
2018-07-14T08:47:57.098Z,59.80
2018-07-14T08:48:57.106Z,60.09
2018-07-14T08:50:50.035Z,60.47
2018-07-14T08:51:50.059Z,59.92
2018-07-14T08:53:43.009Z,60.21
2018-07-14T08:54:43.014Z,60.11
2018-07-14T08:56:35.964Z,57.99
2018-07-14T08:57:35.964Z,57.79
2018-07-14T08:59:28.892Z,58.18
2018-07-14T09:00:28.920Z,58.47
2018-07-14T09:02:21.873Z,57.29
2018-07-14T09:03:21.878Z,57.70
2018-07-14T09:05:14.809Z,58.18
2018-07-14T09:06:14.836Z,56.90
2018-07-14T09:08:07.787Z,58.83
2018-07-14T09:09:07.792Z,59.63
2018-07-14T09:11:00.715Z,58.73
2018-07-14T09:12:00.744Z,59.22
2018-07-14T09:13:53.694Z,60.50
2018-07-14T09:14:53.697Z,60.69
2018-07-14T09:16:46.623Z,58.37
2018-07-14T09:17:46.648Z,57.89
2018-07-14T09:19:39.589Z,58.12
2018-07-14T09:20:39.601Z,58.18
2018-07-14T09:22:32.560Z,58.60
2018-07-14T09:23:32.555Z,59.47
2018-07-14T09:25:25.478Z,59.08
2018-07-14T09:26:25.499Z,58.40
2018-07-14T09:28:18.453Z,58.21
2018-07-14T09:29:18.457Z,58.31
2018-07-14T09:31:11.382Z,58.47
2018-07-14T09:32:11.405Z,58.89
2018-07-14T09:34:04.377Z,57.92
2018-07-14T09:35:04.383Z,57.82
2018-07-14T09:36:57.307Z,56.57
2018-07-14T09:37:57.383Z,57.63
2018-07-14T09:39:50.281Z,58.02
2018-07-14T09:40:50.286Z,57.92
2018-07-14T09:42:43.212Z,57.03
2018-07-14T09:43:43.238Z,57.99
2018-07-14T09:45:36.194Z,58.18
2018-07-14T09:46:36.201Z,58.47
2018-07-14T09:48:29.151Z,58.47
2018-07-14T09:49:29.151Z,59.25
2018-07-14T09:51:22.077Z,58.76
2018-07-14T09:52:22.101Z,58.57
2018-07-14T09:54:15.049Z,58.45
2018-07-14T09:55:15.128Z,58.57
2018-07-14T09:57:07.977Z,58.67
2018-07-14T09:58:08.006Z,59.63
2018-07-14T10:00:01.099Z,59.56
2018-07-14T10:01:01.102Z,60.05
2018-07-14T10:02:54.020Z,58.12
2018-07-14T10:03:54.053Z,58.12
2018-07-14T10:05:46.990Z,58.50
2018-07-14T10:06:46.998Z,59.28
2018-07-14T10:08:39.952Z,58.31
2018-07-14T10:09:39.947Z,57.92
2018-07-14T10:11:32.869Z,58.04
2018-07-14T10:12:32.897Z,58.44
2018-07-14T10:14:25.836Z,57.56
2018-07-14T10:15:25.845Z,56.70
2018-07-14T10:17:18.775Z,58.44
2018-07-14T10:18:18.795Z,58.04
2018-07-14T10:20:11.740Z,56.98
2018-07-14T10:21:11.741Z,57.37
2018-07-14T10:23:04.664Z,57.76
2018-07-14T10:24:04.691Z,57.01
2018-07-14T10:25:57.728Z,57.11
2018-07-14T10:26:57.646Z,57.30
2018-07-14T10:28:50.566Z,57.01
2018-07-14T10:29:50.593Z,57.30
2018-07-14T10:31:43.538Z,56.43
2018-07-14T10:32:50.682Z,56.62
2018-07-14T10:34:36.516Z,56.98
2018-07-14T10:35:36.520Z,56.60
2018-07-14T10:37:29.455Z,56.11
2018-07-14T10:38:29.471Z,55.53
2018-07-14T10:40:22.419Z,56.70
2018-07-14T10:41:22.421Z,56.11
2018-07-14T10:43:15.343Z,56.62
2018-07-14T10:44:15.371Z,56.72
2018-07-14T10:46:08.323Z,57.53
2018-07-14T10:47:08.327Z,56.26
2018-07-14T10:49:01.249Z,56.65
2018-07-14T10:50:01.287Z,55.30
2018-07-14T10:51:54.227Z,55.58
2018-07-14T10:52:54.236Z,55.30
2018-07-14T10:54:47.179Z,55.40
2018-07-14T10:55:47.182Z,55.20
2018-07-14T10:57:40.106Z,54.52
2018-07-14T10:58:40.134Z,55.10
2018-07-14T11:00:33.073Z,56.49
2018-07-14T11:01:33.084Z,55.22
2018-07-14T11:03:26.015Z,53.39
2018-07-14T11:04:26.104Z,53.58
2018-07-14T11:06:18.995Z,54.35
2018-07-14T11:07:18.997Z,53.77
2018-07-14T11:09:11.923Z,54.64
2018-07-14T11:10:11.951Z,55.04
2018-07-14T11:12:04.924Z,54.06
2018-07-14T11:13:04.908Z,54.74
2018-07-14T11:14:57.840Z,54.35
2018-07-14T11:15:57.868Z,53.67
2018-07-14T11:17:50.870Z,53.41
2018-07-14T11:18:50.853Z,53.89
2018-07-14T11:20:43.760Z,53.89
2018-07-14T11:21:43.787Z,54.11
2018-07-14T11:23:36.775Z,53.44
2018-07-14T11:24:36.745Z,53.31
2018-07-14T11:26:29.680Z,53.80
2018-07-14T11:27:29.694Z,53.51
2018-07-14T11:29:22.613Z,54.55
2018-07-14T11:30:22.735Z,54.16
2018-07-14T11:32:15.585Z,54.55
2018-07-14T11:33:15.594Z,54.55
2018-07-14T11:35:08.521Z,53.97
2018-07-14T11:36:08.548Z,54.45
2018-07-14T11:38:01.493Z,54.06
2018-07-14T11:39:01.501Z,54.28
2018-07-14T11:40:54.488Z,53.31
2018-07-14T11:41:54.504Z,53.80
2018-07-14T11:43:47.455Z,53.80
2018-07-14T11:44:47.460Z,53.51
2018-07-14T11:46:40.409Z,53.70
2018-07-14T11:47:40.532Z,53.51
2018-07-14T11:49:33.357Z,53.51
2018-07-14T11:50:33.364Z,53.02
2018-07-14T11:52:26.327Z,53.12
2018-07-14T11:53:26.322Z,52.83
2018-07-14T11:55:19.243Z,53.70
2018-07-14T11:56:19.273Z,53.80
2018-07-14T11:58:12.216Z,52.44
2018-07-14T11:59:12.221Z,52.47
2018-07-14T12:01:05.173Z,52.86
2018-07-14T12:02:05.206Z,52.47
2018-07-14T12:03:58.120Z,52.98
2018-07-14T12:04:58.126Z,52.59
2018-07-14T12:06:51.054Z,51.98
2018-07-14T12:07:51.078Z,52.59
2018-07-14T12:09:44.052Z,52.50
2018-07-14T12:10:44.050Z,51.33
2018-07-14T12:12:36.970Z,51.26
2018-07-14T12:13:37.035Z,51.26
2018-07-14T12:15:29.948Z,52.23
2018-07-14T12:16:29.957Z,51.45
2018-07-14T12:18:22.904Z,51.06
2018-07-14T12:19:22.914Z,51.53
2018-07-14T12:21:15.844Z,52.30
2018-07-14T12:22:15.881Z,52.40
2018-07-14T12:24:08.805Z,52.50
2018-07-14T12:25:08.820Z,53.53
2018-07-14T12:27:01.743Z,52.47
2018-07-14T12:28:01.773Z,52.56
2018-07-14T12:29:54.760Z,52.28
2018-07-14T12:30:54.740Z,52.28
2018-07-14T12:32:47.649Z,52.66
2018-07-14T12:33:47.680Z,52.08
2018-07-14T12:35:40.690Z,52.86
2018-07-14T12:36:40.646Z,53.53
2018-07-14T12:38:33.561Z,51.62
2018-07-14T12:39:33.591Z,52.11
2018-07-14T12:41:26.535Z,51.23
2018-07-14T12:42:26.570Z,51.43
2018-07-14T12:44:19.489Z,52.18
2018-07-14T12:45:19.496Z,52.50
2018-07-14T12:47:12.427Z,51.21
2018-07-14T12:48:12.480Z,51.21
2018-07-14T12:50:05.459Z,52.37
2018-07-14T12:51:05.405Z,51.21
2018-07-14T12:52:58.331Z,51.11
2018-07-14T12:53:58.509Z,51.59
2018-07-14T12:55:51.311Z,52.59
2018-07-14T12:56:51.317Z,51.40
2018-07-14T12:58:44.239Z,51.23
2018-07-14T12:59:44.301Z,51.23
2018-07-14T13:01:37.216Z,51.45
2018-07-14T13:02:37.222Z,50.96
2018-07-14T13:04:30.146Z,50.87
2018-07-14T13:05:30.174Z,51.55
2018-07-14T13:07:23.130Z,51.35
2018-07-14T13:08:23.127Z,50.19
2018-07-14T13:10:16.078Z,49.22
2018-07-14T13:11:16.093Z,49.22
2018-07-14T13:13:09.063Z,49.71
2018-07-14T13:14:09.038Z,49.90
2018-07-14T13:16:01.984Z,49.71
2018-07-14T13:17:01.991Z,50.48
2018-07-14T13:18:54.915Z,51.18
2018-07-14T13:19:54.944Z,50.60
2018-07-14T13:21:48.083Z,49.92
2018-07-14T13:22:48.088Z,48.64
2018-07-14T13:24:41.019Z,49.02
2018-07-14T13:25:41.044Z,49.80
2018-07-14T13:27:33.986Z,49.51
2018-07-14T13:28:33.994Z,49.71
2018-07-14T13:30:27.126Z,50.19
2018-07-14T13:31:27.149Z,49.97
2018-07-14T13:33:20.096Z,50.14
2018-07-14T13:34:20.101Z,50.04
2018-07-14T13:36:13.111Z,50.43
2018-07-14T13:37:13.053Z,50.74
2018-07-14T13:39:05.995Z,50.07
2018-07-14T13:40:06.011Z,48.71
2018-07-14T13:41:58.949Z,49.19
2018-07-14T13:42:58.958Z,49.00
2018-07-14T13:44:51.882Z,47.08
2018-07-14T13:45:51.920Z,47.28
2018-07-14T13:47:44.917Z,46.79
2018-07-14T13:48:44.863Z,47.28
2018-07-14T13:50:37.791Z,46.41
2018-07-14T13:51:37.823Z,46.11
2018-07-14T13:53:30.781Z,46.41
2018-07-14T13:54:30.821Z,45.62
2018-07-14T13:56:23.695Z,46.11
2018-07-14T13:57:23.722Z,46.01
2018-07-14T13:59:16.787Z,45.43
2018-07-14T14:00:16.736Z,45.92
2018-07-14T14:02:09.619Z,45.36
2018-07-14T14:03:09.627Z,46.42
2018-07-14T14:05:02.556Z,45.75
2018-07-14T14:06:02.585Z,45.45
2018-07-14T14:07:55.527Z,44.78
2018-07-14T14:08:55.534Z,44.29
2018-07-14T14:10:48.459Z,43.41
2018-07-14T14:11:48.491Z,44.09
2018-07-14T14:13:41.435Z,44.97
2018-07-14T14:14:41.441Z,44.78
2018-07-14T14:16:34.365Z,45.18
2018-07-14T14:17:34.393Z,45.09
2018-07-14T14:19:27.339Z,44.51
2018-07-14T14:20:27.353Z,43.92
2018-07-14T14:22:20.298Z,44.60
2018-07-14T14:23:20.308Z,43.44
2018-07-14T14:25:13.231Z,44.89
2018-07-14T14:26:13.270Z,44.89
2018-07-14T14:28:06.203Z,45.09
2018-07-14T14:29:06.211Z,43.44
2018-07-14T14:30:59.137Z,42.97
2018-07-14T14:31:59.166Z,42.00
2018-07-14T14:33:52.113Z,41.39
2018-07-14T14:34:52.125Z,42.27
2018-07-14T14:36:45.044Z,43.05
2018-07-14T14:37:45.074Z,42.46
2018-07-14T14:39:38.022Z,42.66
2018-07-14T14:40:38.032Z,43.34
2018-07-14T14:42:30.954Z,43.36
2018-07-14T14:43:30.983Z,42.97
2018-07-14T14:45:23.931Z,43.07
2018-07-14T14:46:23.938Z,42.10
2018-07-14T14:48:16.922Z,42.00
2018-07-14T14:49:16.894Z,41.51
2018-07-14T14:51:09.820Z,42.27
2018-07-14T14:52:09.848Z,42.95
2018-07-14T14:54:02.831Z,42.95
2018-07-14T14:55:02.804Z,42.74
2018-07-14T14:56:55.735Z,43.05
2018-07-14T14:57:55.762Z,43.90
2018-07-14T14:59:48.708Z,43.82
2018-07-14T15:00:48.717Z,43.63
2018-07-14T15:02:41.640Z,42.66
2018-07-14T15:03:41.669Z,42.18
2018-07-14T15:05:34.705Z,42.66
2018-07-14T15:06:34.621Z,42.49
2018-07-14T15:08:27.582Z,42.56
2018-07-14T15:09:27.576Z,42.66
2018-07-14T15:11:20.501Z,42.35
2018-07-14T15:12:20.529Z,42.44
2018-07-14T15:14:13.471Z,43.15
2018-07-14T15:15:13.485Z,42.36
2018-07-14T15:17:06.406Z,42.39
2018-07-14T15:18:06.435Z,41.71
2018-07-14T15:19:59.382Z,42.10
2018-07-14T15:20:59.388Z,41.90
2018-07-14T15:22:52.328Z,41.80
2018-07-14T15:23:52.348Z,43.16
2018-07-14T15:25:45.312Z,42.87
2018-07-14T15:26:45.299Z,41.80
2018-07-14T15:28:38.238Z,42.19
2018-07-14T15:29:38.254Z,41.90
2018-07-14T15:31:32.264Z,41.42
2018-07-14T15:32:32.252Z,42.00
2018-07-14T15:34:25.163Z,42.85
2018-07-14T15:35:25.165Z,42.74
2018-07-14T15:37:18.092Z,43.12
2018-07-14T15:38:18.124Z,43.30
2018-07-14T15:40:11.073Z,44.56
2018-07-14T15:41:11.078Z,44.46
2018-07-14T15:43:04.003Z,43.49
2018-07-14T15:44:04.033Z,43.22
2018-07-14T15:45:56.978Z,43.32
2018-07-14T15:46:57.030Z,43.61
2018-07-14T15:48:49.908Z,43.12
2018-07-14T15:49:49.941Z,43.78
2018-07-14T15:51:42.882Z,43.71
2018-07-14T15:52:42.889Z,44.38
2018-07-14T15:54:35.834Z,42.93
2018-07-14T15:55:35.841Z,43.12
2018-07-14T15:57:28.766Z,43.80
2018-07-14T15:58:28.793Z,43.51
2018-07-14T16:00:21.758Z,43.32
2018-07-14T16:01:21.748Z,42.93
2018-07-14T16:03:14.705Z,43.12
2018-07-14T16:04:14.701Z,42.64
2018-07-14T16:06:07.646Z,42.35
2018-07-14T16:07:07.655Z,41.86
2018-07-14T16:09:00.583Z,42.15
2018-07-14T16:10:00.610Z,42.35
2018-07-14T16:11:53.565Z,41.77
2018-07-14T16:12:53.564Z,42.18
2018-07-14T16:14:46.490Z,42.76
2018-07-14T16:15:46.522Z,42.27
2018-07-14T16:17:39.518Z,42.66
2018-07-14T16:18:39.478Z,42.46
2018-07-14T16:20:32.490Z,42.56
2018-07-14T16:21:32.454Z,42.27
2018-07-14T16:23:25.409Z,42.27
2018-07-14T16:24:25.413Z,42.08
2018-07-14T16:26:18.422Z,41.10
2018-07-14T16:27:18.390Z,41.78
2018-07-14T16:29:12.312Z,41.71
2018-07-14T16:30:12.342Z,42.39
2018-07-14T16:32:05.293Z,42.29
2018-07-14T16:33:05.298Z,40.93
2018-07-14T16:34:58.224Z,40.83
2018-07-14T16:35:58.374Z,40.83
2018-07-14T16:37:51.200Z,41.42
2018-07-14T16:38:51.206Z,40.44
2018-07-14T16:40:44.133Z,40.93
2018-07-14T16:41:44.171Z,42.39
2018-07-14T16:43:37.113Z,41.90
2018-07-14T16:44:37.112Z,42.00
2018-07-14T16:46:30.311Z,42.56
2018-07-14T16:47:30.488Z,41.39
2018-07-14T16:49:23.272Z,42.36
2018-07-14T16:50:23.302Z,42.08
2018-07-14T16:52:16.199Z,42.54
2018-07-14T16:53:16.201Z,42.27
2018-07-14T16:55:09.125Z,42.66
2018-07-14T16:56:09.153Z,43.34
2018-07-14T16:58:02.143Z,41.88
2018-07-14T16:59:02.108Z,41.88
2018-07-14T17:00:55.077Z,42.18
2018-07-14T17:01:55.064Z,42.27
2018-07-14T17:03:48.007Z,41.30
2018-07-14T17:04:48.017Z,39.94
2018-07-14T17:06:40.982Z,41.86
2018-07-14T17:07:40.997Z,41.47
2018-07-14T17:09:33.948Z,41.47
2018-07-14T17:10:33.954Z,40.69
2018-07-14T17:12:26.880Z,42.05
2018-07-14T17:13:26.908Z,41.86
2018-07-14T17:15:20.057Z,42.44
2018-07-14T17:16:20.065Z,42.05
2018-07-14T17:18:13.016Z,41.39
2018-07-14T17:19:13.020Z,40.23
2018-07-14T17:21:05.982Z,41.30
2018-07-14T17:22:05.974Z,40.72
2018-07-14T17:23:58.919Z,40.83
2018-07-14T17:24:58.927Z,39.47
2018-07-14T17:26:51.854Z,39.06
2018-07-14T17:27:51.883Z,38.67
2018-07-14T17:29:44.834Z,39.16
2018-07-14T17:30:44.838Z,39.75
2018-07-14T17:32:37.773Z,39.62
2018-07-14T17:33:37.792Z,40.69
2018-07-14T17:35:30.775Z,40.89
2018-07-14T17:36:30.743Z,40.50
2018-07-14T17:38:23.672Z,40.21
2018-07-14T17:39:23.702Z,40.60
2018-07-14T17:41:17.644Z,40.41
2018-07-14T17:42:17.651Z,41.18
2018-07-14T17:44:10.596Z,40.89
2018-07-14T17:45:10.603Z,40.50
2018-07-14T17:47:03.529Z,41.38
2018-07-14T17:48:03.559Z,42.35
2018-07-14T17:49:56.510Z,40.60
2018-07-14T17:50:56.515Z,41.86
2018-07-14T17:52:49.438Z,42.05
2018-07-14T17:53:49.466Z,41.59
2018-07-14T17:55:42.419Z,39.94
2018-07-14T17:56:42.429Z,39.86
2018-07-14T17:58:35.381Z,40.15
2018-07-14T17:59:35.388Z,39.88
2018-07-14T18:01:28.340Z,39.31
2018-07-14T18:02:28.345Z,39.03
2018-07-14T18:04:21.280Z,39.61
2018-07-14T18:05:21.308Z,39.31
2018-07-14T18:07:15.289Z,38.54
2018-07-14T18:08:15.256Z,38.64
2018-07-14T18:10:08.225Z,37.48
2018-07-14T18:11:08.231Z,36.71
2018-07-14T18:13:01.150Z,36.12
2018-07-14T18:14:01.182Z,37.10
2018-07-14T18:15:54.132Z,36.88
2018-07-14T18:16:54.139Z,36.20
2018-07-14T18:18:47.066Z,36.69
2018-07-14T18:19:47.095Z,36.88
2018-07-14T18:21:40.048Z,37.18
2018-07-14T18:22:40.055Z,37.46
2018-07-14T18:24:32.983Z,37.95
2018-07-14T18:25:33.041Z,38.34
2018-07-14T18:27:25.964Z,38.83
2018-07-14T18:28:25.971Z,38.46
2018-07-14T18:30:18.901Z,38.44
2018-07-14T18:31:18.932Z,39.12
2018-07-14T18:33:11.884Z,38.44